Accueil
METAR-TAF:

METAR-TAF

Aéroports :

Aéroport de Shoreham

Brighton, Angleterre

latitude: 50-50N, longitude: 000-17W, altitude: 2 m

Observation

Le bulletin a été fait il y a 28 minutes, à 19:50 UTC
Vent 6 kt de nord-est
Température 5°C
Humidité 75%
Pression 1017 hPa
Visibilité 10 km ou plus
Nuages épars à une hauteur de 3000 ft

METAR: EGKA 211950Z 05006KT 9999 SCT030 05/01 Q1017

Heure: 20:18 (20:18 UTC)

Prévision

Le bulletin a été fait il y a 2 heures et 37 minutes, à 17:41 UTC
Prévision valable du 21 à 17 UTC au 21 à 19 UTC
Vent 8 kt de est
Visibilité 10 km ou plus
Quelques nuages à une hauteur de 3500 ft

TAF: EGKA 211741Z 2117/2119 09008KT 9999 FEW035

Observations et prévisions météorologiques de plus de 4000 aéroports (messages METAR et TAF).

Les stations disponibles sont représentées par des disques jaunes et rouges sur la carte.

Passer la souris dessus pour voir le nom de la station.

Cliquer dessus pour voir les observations et prévisions météorologiques.

Pour changer de carte: cliquez sur les boutons verts avec une croix noire pour zoomer, sur le bouton vert avec un tiret pour effectuer un zoom arrière, ou sur les flèches vertes pour les cartes adjacentes.


METAR-TAF: